Time;durP1;ratioP1;P1;durP2;ratioP2;P2;SDS_P1;SDS_P2;PMS_P1;PMS_P2;Temp;Humidity;BMP_temperature;BMP_pressure;BME280_temperature;BME280_humidity;BME280_pressure;Samples;Min_cycle;Max_cycle;Signal;HPM_P1;HPM_P2
2023/04/11 00:01:06;;;;;;;;;;;;;;;9.96;73.06;99331.63;5090397;28;20007;-41
2023/04/11 00:03:31;;;;;;;;;;;;;;;9.84;73.60;99333.28;5090581;28;20003;-41
2023/04/11 00:05:57;;;;;;;;;;;;;;;9.93;73.23;99326.72;5090692;28;20008;-41
2023/04/11 00:08:22;;;;;;;;;;;;;;;10.00;73.11;99321.41;5090476;28;20036;-42
2023/04/11 00:10:47;;;;;;;;;;;;;;;10.14;72.22;99322.97;5090581;28;19913;-41
2023/04/11 00:13:12;;;;;;;;;;;;;;;10.16;71.72;99326.22;5090498;28;19950;-41
2023/04/11 00:15:38;;;;;;;;;;;;;;;9.92;72.94;99320.59;5090500;28;19912;-41
2023/04/11 00:18:05;;;;;;;;;;;;;;;9.47;74.61;99322.34;5090251;28;19919;-41
2023/04/11 00:20:30;;;;;;;;;;;;;;;9.77;73.67;99323.50;5090878;28;19939;-41
2023/04/11 00:22:57;;;;;;;;;;;;;;;9.95;72.82;99324.66;5090825;28;20312;-41
2023/04/11 00:25:22;;;;;;;;;;;;;;;9.79;73.23;99325.94;5091059;28;20023;-42
2023/04/11 00:27:48;;;;;;;;;;;;;;;9.98;72.35;99318.94;5091100;28;20024;-40
2023/04/11 00:30:13;;;;;;;;;;;;;;;10.10;71.30;99314.59;5090899;28;20386;-42
2023/04/11 00:32:38;;;;;;;;;;;;;;;10.00;72.41;99321.41;5090912;28;19912;-41
2023/04/11 00:35:04;;;;;;;;;;;;;;;9.94;72.41;99320.41;5090601;28;19912;-41
2023/04/11 00:37:34;;;;;;;;;;;;;;;9.89;71.48;99321.00;5090981;28;19912;-42
2023/04/11 00:40:00;;;;;;;;;;;;;;;9.89;72.02;99320.19;5090786;28;19920;-41
2023/04/11 00:42:25;;;;;;;;;;;;;;;9.83;72.53;99316.53;5090826;28;19942;-42
2023/04/11 00:44:51;;;;;;;;;;;;;;;9.87;72.15;99317.75;5090656;28;19912;-41
2023/04/11 00:47:16;;;;;;;;;;;;;;;9.92;72.10;99319.78;5090507;28;20308;-41
2023/04/11 00:49:42;;;;;;;;;;;;;;;9.75;72.64;99312.25;5090508;28;19923;-42
2023/04/11 00:52:07;;;;;;;;;;;;;;;9.51;72.75;99316.38;5090759;28;20304;-42
2023/04/11 00:54:33;;;;;;;;;;;;;;;9.61;72.45;99315.16;5090686;28;19934;-41
2023/04/11 00:56:59;;;;;;;;;;;;;;;9.76;72.09;99316.53;5089734;28;19919;-41
2023/04/11 00:59:26;;;;;;;;;;;;;;;9.82;71.61;99319.41;5090563;28;19923;-41
2023/04/11 01:01:51;;;;;;;;;;;;;;;10.21;70.29;99307.00;5090808;28;19968;-41
2023/04/11 01:04:16;;;;;;;;;;;;;;;9.94;70.76;99317.75;5090728;28;19912;-41
2023/04/11 01:06:43;;;;;;;;;;;;;;;9.71;71.79;99313.72;5090826;28;19940;-42
2023/04/11 01:09:09;;;;;;;;;;;;;;;9.70;72.24;99322.69;5093541;28;19963;-41
2023/04/11 01:11:34;;;;;;;;;;;;;;;10.00;70.87;99326.72;5094412;28;19989;-42
2023/04/11 01:14:00;;;;;;;;;;;;;;;10.02;70.72;99322.00;5094428;28;19916;-42
2023/04/11 01:16:25;;;;;;;;;;;;;;;10.08;70.37;99310.53;5094517;28;19919;-42
2023/04/11 01:18:51;;;;;;;;;;;;;;;10.05;70.90;99321.56;5094343;28;19916;-42
2023/04/11 01:21:18;;;;;;;;;;;;;;;10.06;69.95;99323.22;5094333;28;19912;-42
2023/04/11 01:23:43;;;;;;;;;;;;;;;9.80;71.50;99316.94;5094082;28;19912;-42
2023/04/11 01:26:09;;;;;;;;;;;;;;;10.00;70.66;99314.25;5093641;28;19939;-42
2023/04/11 01:28:34;;;;;;;;;;;;;;;10.12;70.27;99312.53;5094088;28;20019;-42
2023/04/11 01:31:00;;;;;;;;;;;;;;;9.94;71.21;99313.22;5094165;28;19920;-42
2023/04/11 01:33:25;;;;;;;;;;;;;;;10.13;70.39;99308.06;5094496;28;19912;-42
2023/04/11 01:35:51;;;;;;;;;;;;;;;10.05;71.25;99309.13;5094275;28;19916;-42
2023/04/11 01:38:16;;;;;;;;;;;;;;;9.67;70.49;99250.56;5092702;28;20041;-42
2023/04/11 01:40:42;;;;;;;;;;;;;;;10.00;70.55;99314.25;5093930;28;19913;-41
2023/04/11 01:43:08;;;;;;;;;;;;;;;10.11;71.32;99297.63;5093876;28;20004;-42
2023/04/11 01:45:34;;;;;;;;;;;;;;;9.98;71.63;99308.31;5093775;28;20372;-42
2023/04/11 01:48:04;;;;;;;;;;;;;;;10.09;70.14;99294.38;5093590;28;19920;-42
2023/04/11 01:50:29;;;;;;;;;;;;;;;9.97;70.81;99294.19;5093508;28;19955;-41
2023/04/11 01:52:55;;;;;;;;;;;;;;;9.95;70.94;99303.41;5093722;28;19958;-42
2023/04/11 01:55:20;;;;;;;;;;;;;;;9.89;71.39;99294.44;5093516;28;19968;-42
2023/04/11 01:57:45;;;;;;;;;;;;;;;9.92;71.14;99283.38;5093373;28;19916;-42
2023/04/11 02:00:11;;;;;;;;;;;;;;;10.07;70.50;99283.13;5093532;28;19912;-42
2023/04/11 02:02:36;;;;;;;;;;;;;;;9.97;70.92;99288.88;5093565;28;19919;-42
2023/04/11 02:05:02;;;;;;;;;;;;;;;9.65;72.18;99285.28;5093303;28;20370;-42
2023/04/11 02:07:27;;;;;;;;;;;;;;;9.55;72.31;99285.72;5093599;28;19960;-42
2023/04/11 02:09:53;;;;;;;;;;;;;;;9.77;72.38;99285.50;5093278;28;19919;-42
2023/04/11 02:12:18;;;;;;;;;;;;;;;9.96;71.59;99275.81;5093272;28;20062;-42
2023/04/11 02:14:45;;;;;;;;;;;;;;;9.75;72.21;99283.03;5093453;28;19934;-42
2023/04/11 02:17:11;;;;;;;;;;;;;;;9.82;71.52;99272.38;5093400;28;19975;-42
2023/04/11 02:19:36;;;;;;;;;;;;;;;9.95;71.20;99276.81;5092762;28;19920;-42
2023/04/11 02:22:02;;;;;;;;;;;;;;;10.11;70.71;99271.03;5092795;28;19912;-42
2023/04/11 02:24:27;;;;;;;;;;;;;;;9.97;71.22;99274.78;5093073;28;19927;-42
2023/04/11 02:26:53;;;;;;;;;;;;;;;9.76;72.22;99274.03;5092162;28;19916;-42
2023/04/11 02:29:18;;;;;;;;;;;;;;;9.97;71.15;99269.47;5093073;28;19921;-42
2023/04/11 02:31:43;;;;;;;;;;;;;;;9.96;71.09;99273.97;5092241;28;20380;-42
2023/04/11 02:34:09;;;;;;;;;;;;;;;9.75;71.86;99267.09;5093172;28;19912;-42
2023/04/11 02:36:34;;;;;;;;;;;;;;;9.78;71.42;99271.97;5092835;28;20009;-42
2023/04/11 02:39:00;;;;;;;;;;;;;;;9.62;71.50;99263.66;5092627;28;19921;-42
2023/04/11 02:41:26;;;;;;;;;;;;;;;9.79;71.97;99255.00;5092711;28;20300;-42
2023/04/11 02:43:51;;;;;;;;;;;;;;;9.96;71.27;99259.88;5092707;28;19999;-42
2023/04/11 02:46:16;;;;;;;;;;;;;;;9.54;73.02;99257.56;5092870;28;19971;-42
2023/04/11 02:48:42;;;;;;;;;;;;;;;9.46;74.00;99257.78;5092643;28;19918;-42
2023/04/11 02:51:07;;;;;;;;;;;;;;;9.77;74.02;99246.44;5092901;28;19933;-42
2023/04/11 02:53:32;;;;;;;;;;;;;;;10.02;73.13;99245.72;5092719;28;19947;-41
2023/04/11 02:55:58;;;;;;;;;;;;;;;9.38;75.04;99245.50;5092600;28;19912;-42
2023/04/11 02:58:24;;;;;;;;;;;;;;;9.49;74.73;99235.28;5092727;28;20038;-42
2023/04/11 03:00:50;;;;;;;;;;;;;;;9.74;74.16;99227.44;5092931;28;19912;-42
2023/04/11 03:03:15;;;;;;;;;;;;;;;9.44;74.99;99235.91;5092451;28;19927;-42
2023/04/11 03:05:41;;;;;;;;;;;;;;;9.43;74.38;99234.28;5092687;28;19919;-42
2023/04/11 03:08:07;;;;;;;;;;;;;;;9.64;73.69;99227.88;5092646;28;19967;-42
2023/04/11 03:10:33;;;;;;;;;;;;;;;9.44;74.35;99235.91;5092570;28;20003;-42
2023/04/11 03:12:58;;;;;;;;;;;;;;;9.40;74.33;99237.34;5092390;28;20428;-42
2023/04/11 03:15:24;;;;;;;;;;;;;;;9.42;74.02;99234.47;5092251;28;19912;-42
2023/04/11 03:17:49;;;;;;;;;;;;;;;9.65;72.48;99226.84;5092185;28;19931;-40
2023/04/11 03:20:18;;;;;;;;;;;;;;;9.40;72.49;99226.72;5092101;28;19945;-41
2023/04/11 03:22:44;;;;;;;;;;;;;;;9.62;72.27;99227.28;5091964;28;19919;-41
2023/04/11 03:25:09;;;;;;;;;;;;;;;9.47;72.03;99224.88;5091423;28;19924;-41
2023/04/11 03:27:34;;;;;;;;;;;;;;;9.51;72.29;99219.97;5092059;28;19912;-41
2023/04/11 03:30:00;;;;;;;;;;;;;;;9.67;71.41;99216.84;5091868;28;20002;-41
2023/04/11 03:32:25;;;;;;;;;;;;;;;9.63;71.31;99222.78;5091396;28;20225;-41
2023/04/11 03:34:50;;;;;;;;;;;;;;;9.46;71.77;99222.41;5091692;28;19919;-41
2023/04/11 03:37:16;;;;;;;;;;;;;;;9.47;71.97;99226.72;5091830;28;19912;-41
2023/04/11 03:39:41;;;;;;;;;;;;;;;9.58;71.17;99218.09;5091769;28;19952;-41
2023/04/11 03:42:06;;;;;;;;;;;;;;;9.49;71.36;99214.03;5091695;28;19919;-42
2023/04/11 03:44:31;;;;;;;;;;;;;;;9.43;71.80;99222.84;5091621;28;19912;-42
2023/04/11 03:46:57;;;;;;;;;;;;;;;9.69;70.42;99219.28;5091540;28;19920;-42
2023/04/11 03:49:22;;;;;;;;;;;;;;;9.41;71.38;99216.94;5091489;28;20418;-42
2023/04/11 03:51:47;;;;;;;;;;;;;;;9.49;71.30;99212.19;5091820;28;19958;-42
2023/04/11 03:54:13;;;;;;;;;;;;;;;9.21;72.24;99201.84;5091678;28;19966;-42
2023/04/11 03:56:38;;;;;;;;;;;;;;;9.33;71.20;99216.13;5091270;28;20003;-42
2023/04/11 03:59:03;;;;;;;;;;;;;;;9.65;70.82;99212.75;5091697;28;19916;-42
2023/04/11 04:01:29;;;;;;;;;;;;;;;9.63;70.15;99205.00;5091378;28;20387;-41
2023/04/11 04:03:54;;;;;;;;;;;;;;;9.47;70.57;99200.16;5091281;28;19954;-41
2023/04/11 04:06:20;;;;;;;;;;;;;;;9.29;71.20;99209.59;5091638;28;19927;-42
2023/04/11 04:08:45;;;;;;;;;;;;;;;9.63;70.05;99202.31;5091950;28;19912;-42
2023/04/11 04:11:10;;;;;;;;;;;;;;;9.48;70.44;99199.13;5091833;28;19916;-42
2023/04/11 04:13:36;;;;;;;;;;;;;;;9.57;69.97;99209.28;5091706;28;20416;-42
2023/04/11 04:16:01;;;;;;;;;;;;;;;9.47;70.17;99197.50;5091117;28;19919;-41
2023/04/11 04:18:26;;;;;;;;;;;;;;;9.31;70.72;99204.91;5090874;28;20350;-41
2023/04/11 04:20:52;;;;;;;;;;;;;;;9.55;69.89;99197.25;5090455;28;20397;-42
2023/04/11 04:23:17;;;;;;;;;;;;;;;9.57;70.70;99203.19;5091278;28;19944;-42
2023/04/11 04:25:46;;;;;;;;;;;;;;;9.77;68.67;99195.94;5090672;28;19924;-42
2023/04/11 04:28:11;;;;;;;;;;;;;;;9.54;70.07;99198.31;5091299;28;19919;-43
2023/04/11 04:30:37;;;;;;;;;;;;;;;9.56;69.73;99202.38;5090803;28;19912;-42
2023/04/11 04:33:02;;;;;;;;;;;;;;;9.48;70.54;99202.63;5091059;28;19912;-42
2023/04/11 04:35:27;;;;;;;;;;;;;;;9.69;69.50;99187.38;5091046;28;20350;-42
2023/04/11 04:37:53;;;;;;;;;;;;;;;9.61;69.54;99191.09;5090662;28;20296;-41
2023/04/11 04:40:19;;;;;;;;;;;;;;;9.55;69.96;99189.28;5091210;28;19923;-41
2023/04/11 04:42:48;;;;;;;;;;;;;;;9.68;68.95;99199.06;5092007;28;20003;-41
2023/04/11 04:45:14;;;;;;;;;;;;;;;10.03;67.34;99188.03;5094873;28;19912;-42
2023/04/11 04:47:39;;;;;;;;;;;;;;;10.13;67.17;99185.75;5094572;28;19912;-42
2023/04/11 04:50:05;;;;;;;;;;;;;;;10.13;66.91;99183.09;5094593;28;20007;-41
2023/04/11 04:52:30;;;;;;;;;;;;;;;10.28;66.83;99180.94;5094607;28;19966;-41
2023/04/11 04:55:00;;;;;;;;;;;;;;;10.23;66.55;99174.66;5094278;28;20003;-41
2023/04/11 04:57:26;;;;;;;;;;;;;;;10.22;67.51;99184.44;5094251;28;20291;-41
2023/04/11 04:59:51;;;;;;;;;;;;;;;10.51;65.69;99176.94;5094138;28;20410;-41
2023/04/11 05:02:17;;;;;;;;;;;;;;;10.50;65.63;99177.94;5094623;28;20613;-41
2023/04/11 05:04:43;;;;;;;;;;;;;;;10.87;64.78;99167.38;5094413;28;19926;-42
2023/04/11 05:07:09;;;;;;;;;;;;;;;10.86;64.41;99171.09;5094141;28;19912;-42
2023/04/11 05:09:35;;;;;;;;;;;;;;;11.42;64.40;99161.28;5092977;28;19995;-42
2023/04/11 05:12:00;;;;;;;;;;;;;;;11.31;63.68;99162.88;5094091;28;20057;-42
2023/04/11 05:14:26;;;;;;;;;;;;;;;11.15;63.75;99166.91;5094014;28;20371;-42
2023/04/11 05:16:51;;;;;;;;;;;;;;;11.15;63.31;99169.56;5093953;28;20511;-42
2023/04/11 05:19:16;;;;;;;;;;;;;;;11.14;63.99;99173.28;5092300;28;19997;-42
2023/04/11 05:21:42;;;;;;;;;;;;;;;11.43;63.15;99170.94;5093925;28;19920;-42
2023/04/11 05:24:07;;;;;;;;;;;;;;;11.54;63.55;99178.97;5093630;28;19920;-42
2023/04/11 05:26:32;;;;;;;;;;;;;;;11.30;63.48;99164.69;5093578;28;20007;-42
2023/04/11 05:28:57;;;;;;;;;;;;;;;11.06;63.82;99173.56;5093795;28;19998;-42
2023/04/11 05:31:24;;;;;;;;;;;;;;;11.04;64.86;99170.31;5093605;28;20016;-42
2023/04/11 05:33:50;;;;;;;;;;;;;;;11.84;62.02;99177.38;5093530;28;19919;-43
2023/04/11 05:36:15;;;;;;;;;;;;;;;11.67;62.89;99174.50;5093291;28;20310;-37
2023/04/11 05:38:41;;;;;;;;;;;;;;;11.38;63.23;99166.25;5093077;28;19923;-37
2023/04/11 05:41:07;;;;;;;;;;;;;;;11.62;63.34;99175.19;5093481;28;19912;-37
2023/04/11 05:43:32;;;;;;;;;;;;;;;11.54;63.51;99172.84;5093143;28;19919;-43
2023/04/11 05:45:58;;;;;;;;;;;;;;;12.09;62.34;99167.44;5092956;28;19912;-37
2023/04/11 05:48:23;;;;;;;;;;;;;;;11.99;61.37;99161.81;5093262;28;19912;-36
2023/04/11 05:50:48;;;;;;;;;;;;;;;11.98;62.17;99160.19;5093419;28;20268;-41
2023/04/11 05:53:14;;;;;;;;;;;;;;;12.02;61.95;99157.91;5093055;28;19919;-43
2023/04/11 05:55:39;;;;;;;;;;;;;;;12.37;61.32;99167.84;5092517;28;20489;-41
2023/04/11 05:58:05;;;;;;;;;;;;;;;12.25;60.92;99163.28;5092218;28;19920;-42
2023/04/11 06:00:31;;;;;;;;;;;;;;;12.58;60.65;99159.28;5091265;28;20203;-37
2023/04/11 06:02:56;;;;;;;;;;;;;;;12.40;60.96;99168.19;5091534;28;20405;-36
2023/04/11 06:05:21;;;;;;;;;;;;;;;12.39;61.02;99161.22;5091314;28;20285;-36
2023/04/11 06:07:47;;;;;;;;;;;;;;;12.33;60.59;99164.81;5090879;28;19959;-36
2023/04/11 06:10:12;;;;;;;;;;;;;;;12.27;60.63;99171.88;5090717;28;19912;-36
2023/04/11 06:12:38;;;;;;;;;;;;;;;12.32;60.69;99163.19;5090758;28;19912;-36
2023/04/11 06:15:03;;;;;;;;;;;;;;;12.09;60.96;99156.75;5090479;28;20372;-37
2023/04/11 06:17:28;;;;;;;;;;;;;;;12.30;60.52;99162.63;5091286;28;20422;-37
2023/04/11 06:19:54;;;;;;;;;;;;;;;12.42;59.97;99160.78;5091380;28;20007;-36
2023/04/11 06:22:19;;;;;;;;;;;;;;;12.45;60.33;99157.66;5091604;28;19912;-37
2023/04/11 06:24:44;;;;;;;;;;;;;;;12.97;58.76;99153.50;5091386;28;20316;-37
2023/04/11 06:27:10;;;;;;;;;;;;;;;12.94;59.03;99146.75;5091173;28;19986;-36
2023/04/11 06:29:35;;;;;;;;;;;;;;;12.85;58.68;99154.31;5091621;28;19985;-37
2023/04/11 06:32:01;;;;;;;;;;;;;;;12.23;59.44;99146.69;5091581;28;20029;-36
2023/04/11 06:34:26;;;;;;;;;;;;;;;12.51;59.14;99148.72;5091620;28;20380;-36
2023/04/11 06:36:52;;;;;;;;;;;;;;;13.15;57.44;99155.22;5091703;28;19913;-36
2023/04/11 06:39:17;;;;;;;;;;;;;;;12.98;58.07;99149.78;5091096;28;20344;-37
2023/04/11 06:41:42;;;;;;;;;;;;;;;13.19;56.69;99143.81;5091269;28;19919;-37
2023/04/11 06:44:08;;;;;;;;;;;;;;;13.00;57.30;99137.00;5091420;28;19912;-36
2023/04/11 06:46:33;;;;;;;;;;;;;;;13.04;56.49;99127.47;5092064;28;19919;-37
2023/04/11 06:48:59;;;;;;;;;;;;;;;12.85;56.56;99137.47;5091789;28;19922;-35
2023/04/11 06:51:24;;;;;;;;;;;;;;;12.99;57.67;99141.53;5091353;28;20031;-36
2023/04/11 06:53:50;;;;;;;;;;;;;;;12.45;57.84;99128.31;5091684;28;20372;-36
2023/04/11 06:56:15;;;;;;;;;;;;;;;12.71;56.74;99128.88;5091229;28;19993;-36
2023/04/11 06:58:40;;;;;;;;;;;;;;;12.92;56.63;99127.47;5090951;28;19920;-36
2023/04/11 07:01:06;;;;;;;;;;;;;;;13.04;55.89;99135.47;5091139;28;19920;-37
2023/04/11 07:03:31;;;;;;;;;;;;;;;13.17;55.65;99135.22;5090913;28;19919;-37
2023/04/11 07:05:57;;;;;;;;;;;;;;;12.86;55.34;99126.56;5090206;28;19912;-36
2023/04/11 07:08:22;;;;;;;;;;;;;;;12.77;56.42;99129.81;5090950;28;19913;-36
2023/04/11 07:10:47;;;;;;;;;;;;;;;12.36;56.56;99134.22;5090755;28;20307;-36
2023/04/11 07:13:13;;;;;;;;;;;;;;;12.50;56.63;99136.41;5090596;28;20291;-36
2023/04/11 07:15:38;;;;;;;;;;;;;;;12.60;56.18;99138.50;5090584;28;19913;-38
2023/04/11 07:18:03;;;;;;;;;;;;;;;12.73;56.51;99150.00;5090535;28;19961;-37
2023/04/11 07:20:31;;;;;;;;;;;;;;;12.90;56.05;99143.72;5090825;28;20355;-36
2023/04/11 07:22:57;;;;;;;;;;;;;;;12.83;56.02;99137.72;5090849;28;19912;-36
2023/04/11 07:25:24;;;;;;;;;;;;;;;13.02;55.42;99134.91;5090291;28;20339;-37
2023/04/11 07:27:50;;;;;;;;;;;;;;;13.03;55.22;99139.22;5090273;28;19912;-37
2023/04/11 07:30:15;;;;;;;;;;;;;;;13.11;55.40;99131.63;5090414;28;19912;-37
2023/04/11 07:32:41;;;;;;;;;;;;;;;13.13;55.55;99134.06;5090591;28;20030;-36
2023/04/11 07:35:06;;;;;;;;;;;;;;;12.81;55.52;99082.91;5090797;28;20338;-39
2023/04/11 07:37:32;;;;;;;;;;;;;;;13.15;55.39;99129.31;5090742;28;19944;-37
2023/04/11 07:39:57;;;;;;;;;;;;;;;13.42;54.92;99126.13;5090248;28;20348;-36
2023/04/11 07:42:22;;;;;;;;;;;;;;;13.52;53.84;99122.84;5090420;28;19912;-37
2023/04/11 07:44:47;;;;;;;;;;;;;;;13.72;53.58;99125.13;5090712;28;20038;-36
2023/04/11 07:47:13;;;;;;;;;;;;;;;14.55;51.64;99134.28;5090062;28;20371;-36
2023/04/11 07:49:38;;;;;;;;;;;;;;;14.24;51.51;99135.66;5090289;28;20233;-36
2023/04/11 07:52:03;;;;;;;;;;;;;;;14.47;50.64;99127.47;5090307;28;20291;-37
2023/04/11 07:54:29;;;;;;;;;;;;;;;13.94;51.82;99122.59;5090227;28;19934;-36
2023/04/11 07:56:55;;;;;;;;;;;;;;;13.88;52.29;99117.13;5090059;28;20376;-37
2023/04/11 07:59:21;;;;;;;;;;;;;;;14.33;50.30;99118.13;5090467;28;19920;-37
2023/04/11 08:01:46;;;;;;;;;;;;;;;13.94;51.83;99112.69;5090364;28;19916;-38
2023/04/11 08:04:11;;;;;;;;;;;;;;;14.37;50.86;99115.78;5090433;28;20344;-37
2023/04/11 08:06:37;;;;;;;;;;;;;;;14.15;50.94;99111.16;5090316;28;19955;-38
2023/04/11 08:09:02;;;;;;;;;;;;;;;14.06;50.96;99116.09;5090173;28;19993;-36
2023/04/11 08:11:28;;;;;;;;;;;;;;;13.77;51.22;99111.84;5089989;28;19912;-36
2023/04/11 08:13:53;;;;;;;;;;;;;;;14.02;50.80;99111.47;5090224;28;19962;-36
2023/04/11 08:16:19;;;;;;;;;;;;;;;13.65;51.66;99102.00;5090023;28;19942;-37
2023/04/11 08:18:44;;;;;;;;;;;;;;;13.87;51.30;99093.31;5089761;28;19923;-36
2023/04/11 08:21:10;;;;;;;;;;;;;;;13.83;51.75;99092.97;5089800;28;19919;-36
2023/04/11 08:23:36;;;;;;;;;;;;;;;13.71;51.33;99089.56;5089837;28;19916;-37
2023/04/11 08:26:01;;;;;;;;;;;;;;;14.05;50.60;99086.91;5089931;28;19959;-37
2023/04/11 08:28:26;;;;;;;;;;;;;;;13.79;51.26;99093.69;5089992;28;19912;-36
2023/04/11 08:30:54;;;;;;;;;;;;;;;13.89;49.98;99085.84;5089857;28;20398;-36
2023/04/11 08:33:23;;;;;;;;;;;;;;;13.60;51.10;99079.72;5089648;28;19912;-37
2023/04/11 08:35:49;;;;;;;;;;;;;;;13.69;50.80;99075.63;5090267;28;19916;-36
2023/04/11 08:38:14;;;;;;;;;;;;;;;13.95;50.73;99076.84;5090006;28;19919;-38
2023/04/11 08:40:39;;;;;;;;;;;;;;;14.05;49.48;99076.19;5089649;28;19916;-37
2023/04/11 08:43:10;;;;;;;;;;;;;;;14.48;48.89;99066.72;5090118;28;19912;-36
2023/04/11 08:45:36;;;;;;;;;;;;;;;14.31;49.02;99080.09;5090280;28;19913;-35
2023/04/11 08:48:01;;;;;;;;;;;;;;;14.42;48.84;99057.78;5090489;28;19920;-37
2023/04/11 08:50:26;;;;;;;;;;;;;;;14.54;48.80;99068.41;5090539;28;19912;-36
2023/04/11 08:52:52;;;;;;;;;;;;;;;14.81;48.19;99068.56;5090389;28;19912;-36
2023/04/11 08:55:18;;;;;;;;;;;;;;;14.83;47.93;99068.28;5090452;28;19916;-37
2023/04/11 08:57:43;;;;;;;;;;;;;;;14.78;47.71;99070.94;5090823;28;19919;-38
2023/04/11 09:00:17;;;;;;;;;;;;;;;14.83;48.58;99061.09;5090760;28;20014;-37
2023/04/11 09:02:59;;;;;;;;;;;;;;;14.58;48.12;99058.03;5090507;28;19969;-37
2023/04/11 09:05:28;;;;;;;;;;;;;;;14.68;48.48;99054.69;5090486;28;19912;-37
2023/04/11 09:07:54;;;;;;;;;;;;;;;14.56;48.67;99049.44;5090210;28;19970;-42
2023/04/11 09:10:20;;;;;;;;;;;;;;;14.51;48.73;99038.63;5090444;28;19916;-42
2023/04/11 09:12:46;;;;;;;;;;;;;;;14.69;48.03;99037.59;5090544;28;19912;-44
2023/04/11 09:15:18;;;;;;;;;;;;;;;15.00;48.04;99038.78;5090307;28;20032;-42
2023/04/11 09:17:44;;;;;;;;;;;;;;;14.73;47.74;99031.47;5090293;28;20025;-42
2023/04/11 09:20:19;;;;;;;;;;;;;;;14.68;47.44;99034.09;5090237;28;20438;-42
2023/04/11 09:22:47;;;;;;;;;;;;;;;15.04;47.92;99029.16;5090761;28;20014;-42
2023/04/11 09:25:13;;;;;;;;;;;;;;;15.25;47.40;99012.28;5090338;28;20014;-42
2023/04/11 09:27:38;;;;;;;;;;;;;;;14.72;46.96;99018.34;5090502;28;20463;-43
2023/04/11 09:30:04;;;;;;;;;;;;;;;14.67;47.91;99037.81;5093021;28;19912;-45
2023/04/11 09:32:34;;;;;;;;;;;;;;;14.98;47.02;99017.63;5094156;28;19985;-42
2023/04/11 09:35:10;;;;;;;;;;;;;;;15.18;47.00;99018.91;5094325;28;19919;-44
2023/04/11 09:37:42;;;;;;;;;;;;;;;14.95;47.64;99017.31;5093928;28;19912;-44
2023/04/11 09:40:07;;;;;;;;;;;;;;;14.72;47.31;99016.47;5093700;28;19945;-44
2023/04/11 09:42:33;;;;;;;;;;;;;;;14.68;47.42;99011.84;5093818;28;19912;-42
2023/04/11 09:44:59;;;;;;;;;;;;;;;15.02;47.33;99010.69;5093565;28;19912;-44
2023/04/11 09:47:24;;;;;;;;;;;;;;;15.43;46.43;99008.44;5093500;28;19938;-43
2023/04/11 09:49:51;;;;;;;;;;;;;;;15.71;45.48;99006.56;5093289;28;19946;-42
2023/04/11 09:52:17;;;;;;;;;;;;;;;15.28;45.88;99002.91;5093698;28;19912;-43
2023/04/11 09:54:43;;;;;;;;;;;;;;;15.57;45.24;99005.34;5093174;28;20452;-43
2023/04/11 09:57:09;;;;;;;;;;;;;;;15.25;46.63;98998.09;5093563;28;19913;-42
2023/04/11 09:59:34;;;;;;;;;;;;;;;15.27;46.38;98993.28;5093162;28;19916;-43
2023/04/11 10:02:00;;;;;;;;;;;;;;;15.19;47.09;98996.38;5093376;28;19912;-41
2023/04/11 10:04:26;;;;;;;;;;;;;;;15.57;46.15;98992.78;5093228;28;19912;-42
2023/04/11 10:06:58;;;;;;;;;;;;;;;15.81;45.24;98989.78;5093384;28;19916;-43
2023/04/11 10:09:23;;;;;;;;;;;;;;;15.53;46.10;98983.59;5093053;28;20391;-43
2023/04/11 10:11:49;;;;;;;;;;;;;;;15.82;45.93;98977.97;5093164;28;20012;-42
2023/04/11 10:14:33;;;;;;;;;;;;;;;16.00;45.49;98974.88;5092843;28;19912;-44
2023/04/11 10:17:14;;;;;;;;;;;;;;;15.71;45.61;98970.91;5093103;28;19919;-43
2023/04/11 10:19:39;;;;;;;;;;;;;;;15.55;45.69;98984.13;5092836;28;19916;-42
2023/04/11 10:22:04;;;;;;;;;;;;;;;15.95;44.17;98958.75;5092943;28;20011;-42
2023/04/11 10:24:30;;;;;;;;;;;;;;;16.65;43.07;98961.28;5093112;28;20032;-41
2023/04/11 10:26:59;;;;;;;;;;;;;;;16.86;42.01;98964.09;5093460;28;20327;-43
2023/04/11 10:29:27;;;;;;;;;;;;;;;17.00;41.62;98955.28;5093061;28;19998;-43
2023/04/11 10:32:07;;;;;;;;;;;;;;;17.19;41.47;98954.75;5092854;28;19919;-41
2023/04/11 10:34:34;;;;;;;;;;;;;;;17.19;39.04;98963.66;5092709;28;19912;-42
2023/04/11 10:37:01;;;;;;;;;;;;;;;16.70;39.05;98955.94;5092677;28;19912;-44
2023/04/11 10:39:49;;;;;;;;;;;;;;;16.45;39.94;98948.59;5092517;28;20359;-41
2023/04/11 10:42:33;;;;;;;;;;;;;;;17.12;39.19;98941.59;5091823;28;19916;-42
2023/04/11 10:45:17;;;;;;;;;;;;;;;16.82;38.96;98931.56;5092530;28;20027;-42
2023/04/11 10:48:04;;;;;;;;;;;;;;;16.83;38.35;98938.56;5092581;28;19912;-41
2023/04/11 10:50:30;;;;;;;;;;;;;;;17.02;38.27;98930.81;5088670;28;19912;-41
2023/04/11 10:52:59;;;;;;;;;;;;;;;16.75;38.38;98925.59;5092231;28;19916;-41
2023/04/11 10:55:25;;;;;;;;;;;;;;;16.57;38.42;98924.19;5092321;28;19912;-43
2023/04/11 10:58:15;;;;;;;;;;;;;;;16.48;37.72;98923.09;5092599;28;20020;-42
2023/04/11 11:00:53;;;;;;;;;;;;;;;16.82;37.49;98920.81;5089345;28;20014;-42
2023/04/11 11:03:18;;;;;;;;;;;;;;;16.90;37.88;98920.28;5092200;28;19912;-41
2023/04/11 11:05:44;;;;;;;;;;;;;;;18.16;35.90;98900.97;5091807;28;19965;-42
2023/04/11 11:08:09;;;;;;;;;;;;;;;18.02;36.34;98901.81;5092102;28;19912;-41
2023/04/11 11:10:52;;;;;;;;;;;;;;;17.95;35.78;98899.38;5092327;28;20011;-43
2023/04/11 11:13:18;;;;;;;;;;;;;;;17.93;35.77;98888.91;5092014;28;20376;-42
2023/04/11 11:15:47;;;;;;;;;;;;;;;18.45;35.84;98875.25;5092195;28;19984;-43
2023/04/11 11:18:14;;;;;;;;;;;;;;;18.75;34.87;98888.59;5089772;28;20044;-41
2023/04/11 11:20:39;;;;;;;;;;;;;;;18.83;34.67;98881.03;5091685;28;19912;-41
2023/04/11 11:23:06;;;;;;;;;;;;;;;18.42;34.91;98862.34;5092012;28;19916;-42
2023/04/11 11:25:31;;;;;;;;;;;;;;;18.13;35.53;98869.19;5091824;28;19981;-42
2023/04/11 11:27:57;;;;;;;;;;;;;;;18.71;33.58;98852.47;5092138;28;19916;-42
2023/04/11 11:30:22;;;;;;;;;;;;;;;18.60;33.50;98859.03;5091671;28;20042;-42
2023/04/11 11:32:48;;;;;;;;;;;;;;;18.81;33.32;98856.25;5091774;28;19951;-42
2023/04/11 11:35:13;;;;;;;;;;;;;;;19.41;32.53;98854.19;5091686;28;19919;-42
2023/04/11 11:37:38;;;;;;;;;;;;;;;18.72;33.65;98854.09;5091548;28;20338;-41
2023/04/11 11:40:08;;;;;;;;;;;;;;;18.40;33.84;98821.44;5091681;28;19923;-40
2023/04/11 11:42:35;;;;;;;;;;;;;;;18.87;32.46;98849.75;5091247;28;20398;-41
2023/04/11 11:45:33;;;;;;;;;;;;;;;18.65;33.16;98842.81;5091639;28;19916;-42
2023/04/11 11:47:58;;;;;;;;;;;;;;;19.45;32.39;98843.63;5067699;28;20336;-40
2023/04/11 11:50:24;;;;;;;;;;;;;;;19.48;32.31;98840.38;5090867;28;19981;-41
2023/04/11 11:52:49;;;;;;;;;;;;;;;19.30;32.64;98841.88;5091136;28;19916;-41
2023/04/11 11:55:17;;;;;;;;;;;;;;;18.86;32.95;98830.06;5090820;28;19970;-41
2023/04/11 11:57:46;;;;;;;;;;;;;;;18.97;32.58;98838.88;5090987;28;19912;-41
2023/04/11 12:00:12;;;;;;;;;;;;;;;18.56;33.08;98831.84;5090772;28;20392;-41
2023/04/11 12:02:38;;;;;;;;;;;;;;;19.25;31.94;98829.25;5090973;28;20445;-41
2023/04/11 12:05:05;;;;;;;;;;;;;;;18.69;32.55;98821.53;5091332;28;19964;-40
2023/04/11 12:07:33;;;;;;;;;;;;;;;18.68;32.44;98825.31;5091420;28;19998;-42
2023/04/11 12:09:59;;;;;;;;;;;;;;;18.35;33.60;98828.47;5091306;28;19919;-41
2023/04/11 12:12:32;;;;;;;;;;;;;;;17.83;33.95;98816.22;5091404;28;19945;-41
2023/04/11 12:14:57;;;;;;;;;;;;;;;18.17;34.06;98816.41;5090974;28;19912;-41
2023/04/11 12:17:22;;;;;;;;;;;;;;;18.32;34.34;98801.28;5090830;28;19918;-42
2023/04/11 12:19:47;;;;;;;;;;;;;;;18.69;33.73;98806.16;5090794;28;19938;-42
2023/04/11 12:22:13;;;;;;;;;;;;;;;18.59;33.17;98790.06;5091061;28;19965;-41
2023/04/11 12:24:38;;;;;;;;;;;;;;;18.10;33.31;98780.09;5090852;28;19924;-41
2023/04/11 12:27:03;;;;;;;;;;;;;;;18.26;33.02;98794.28;5091018;28;19920;-42
2023/04/11 12:29:28;;;;;;;;;;;;;;;18.32;32.79;98794.00;5091052;28;20042;-44
2023/04/11 12:31:54;;;;;;;;;;;;;;;18.64;32.32;98783.81;5090640;28;19920;-41
2023/04/11 12:34:19;;;;;;;;;;;;;;;18.67;32.37;98781.38;5090654;28;20046;-40
2023/04/11 12:36:44;;;;;;;;;;;;;;;19.24;32.17;98783.66;5090765;28;19912;-42
2023/04/11 12:39:10;;;;;;;;;;;;;;;19.46;32.16;98781.31;5090537;28;19920;-42
2023/04/11 12:41:35;;;;;;;;;;;;;;;19.37;32.33;98766.03;5090591;28;20316;-41
2023/04/11 12:44:02;;;;;;;;;;;;;;;19.33;32.15;98758.50;5090724;28;19912;-41
2023/04/11 12:46:27;;;;;;;;;;;;;;;19.61;31.94;98749.84;5090623;28;19912;-41